sensor_id;sensor_type;location;lat;lon;timestamp;pressure;altitude;pressure_sealevel;temperature
40245;BMP280;25963;42.694;23.600;2024-01-10T00:01:16;96212.53;;;-4.19
40245;BMP280;25963;42.694;23.600;2024-01-10T00:03:42;96207.25;;;-4.22
40245;BMP280;25963;42.694;23.600;2024-01-10T00:06:08;96201.31;;;-4.23
40245;BMP280;25963;42.694;23.600;2024-01-10T00:08:33;96207.22;;;-4.26
40245;BMP280;25963;42.694;23.600;2024-01-10T00:10:59;96220.72;;;-4.20
40245;BMP280;25963;42.694;23.600;2024-01-10T00:13:24;96198.63;;;-4.26
40245;BMP280;25963;42.694;23.600;2024-01-10T00:15:50;96217.06;;;-4.16
40245;BMP280;25963;42.694;23.600;2024-01-10T00:18:15;96214.47;;;-4.16
40245;BMP280;25963;42.694;23.600;2024-01-10T00:20:40;96223.03;;;-4.15
40245;BMP280;25963;42.694;23.600;2024-01-10T00:23:06;96222.22;;;-4.19
40245;BMP280;25963;42.694;23.600;2024-01-10T00:25:32;96214.38;;;-4.19
40245;BMP280;25963;42.694;23.600;2024-01-10T00:27:58;96222.69;;;-4.14
40245;BMP280;25963;42.694;23.600;2024-01-10T00:30:25;96225.25;;;-4.17
40245;BMP280;25963;42.694;23.600;2024-01-10T00:32:50;96227.50;;;-4.16
40245;BMP280;25963;42.694;23.600;2024-01-10T00:35:16;96226.72;;;-4.16
40245;BMP280;25963;42.694;23.600;2024-01-10T00:37:41;96224.97;;;-4.12
40245;BMP280;25963;42.694;23.600;2024-01-10T00:40:07;96221.13;;;-4.18
40245;BMP280;25963;42.694;23.600;2024-01-10T00:42:33;96220.94;;;-4.10
40245;BMP280;25963;42.694;23.600;2024-01-10T00:44:58;96229.91;;;-4.07
40245;BMP280;25963;42.694;23.600;2024-01-10T00:47:23;96222.38;;;-4.12
40245;BMP280;25963;42.694;23.600;2024-01-10T00:49:49;96225.44;;;-4.07
40245;BMP280;25963;42.694;23.600;2024-01-10T00:52:14;96219.13;;;-4.06
40245;BMP280;25963;42.694;23.600;2024-01-10T00:54:40;96216.19;;;-4.04
40245;BMP280;25963;42.694;23.600;2024-01-10T00:57:08;96218.09;;;-4.01
40245;BMP280;25963;42.694;23.600;2024-01-10T00:59:34;96206.28;;;-4.14
40245;BMP280;25963;42.694;23.600;2024-01-10T01:01:59;96168.25;;;-4.38
40245;BMP280;25963;42.694;23.600;2024-01-10T01:04:25;96206.84;;;-4.05
40245;BMP280;25963;42.694;23.600;2024-01-10T01:06:50;96213.56;;;-4.04
40245;BMP280;25963;42.694;23.600;2024-01-10T01:09:15;96218.38;;;-4.06
40245;BMP280;25963;42.694;23.600;2024-01-10T01:11:41;96153.22;;;-4.44
40245;BMP280;25963;42.694;23.600;2024-01-10T01:14:07;96212.06;;;-4.05
40245;BMP280;25963;42.694;23.600;2024-01-10T01:16:33;96218.03;;;-4.05
40245;BMP280;25963;42.694;23.600;2024-01-10T01:18:58;96213.22;;;-4.03
40245;BMP280;25963;42.694;23.600;2024-01-10T01:21:24;96212.75;;;-4.08
40245;BMP280;25963;42.694;23.600;2024-01-10T01:23:49;96210.91;;;-4.08
40245;BMP280;25963;42.694;23.600;2024-01-10T01:26:15;96202.63;;;-4.13
40245;BMP280;25963;42.694;23.600;2024-01-10T01:28:40;96215.34;;;-4.08
40245;BMP280;25963;42.694;23.600;2024-01-10T01:31:06;96211.28;;;-4.06
40245;BMP280;25963;42.694;23.600;2024-01-10T01:33:31;96202.75;;;-4.06
40245;BMP280;25963;42.694;23.600;2024-01-10T01:35:57;96193.59;;;-4.16
40245;BMP280;25963;42.694;23.600;2024-01-10T01:38:22;96216.47;;;-4.09
40245;BMP280;25963;42.694;23.600;2024-01-10T01:40:48;96206.75;;;-4.12
40245;BMP280;25963;42.694;23.600;2024-01-10T01:43:23;96205.28;;;-4.10
40245;BMP280;25963;42.694;23.600;2024-01-10T01:45:52;96204.59;;;-4.07
40245;BMP280;25963;42.694;23.600;2024-01-10T01:48:18;96211.25;;;-4.09
40245;BMP280;25963;42.694;23.600;2024-01-10T01:50:45;96161.47;;;-4.42
40245;BMP280;25963;42.694;23.600;2024-01-10T01:53:12;96195.44;;;-4.16
40245;BMP280;25963;42.694;23.600;2024-01-10T01:55:38;96195.94;;;-4.11
40245;BMP280;25963;42.694;23.600;2024-01-10T01:58:05;96206.03;;;-4.09
40245;BMP280;25963;42.694;23.600;2024-01-10T02:00:31;96205.69;;;-4.08
40245;BMP280;25963;42.694;23.600;2024-01-10T02:02:58;96191.84;;;-4.12
40245;BMP280;25963;42.694;23.600;2024-01-10T02:05:24;96200.34;;;-4.15
40245;BMP280;25963;42.694;23.600;2024-01-10T02:07:50;96142.72;;;-4.52
40245;BMP280;25963;42.694;23.600;2024-01-10T02:10:15;96178.81;;;-4.31
40245;BMP280;25963;42.694;23.600;2024-01-10T02:12:41;96190.13;;;-4.23
40245;BMP280;25963;42.694;23.600;2024-01-10T02:15:07;96194.13;;;-4.29
40245;BMP280;25963;42.694;23.600;2024-01-10T02:17:32;96192.84;;;-4.35
40245;BMP280;25963;42.694;23.600;2024-01-10T02:20:11;96186.69;;;-4.27
40245;BMP280;25963;42.694;23.600;2024-01-10T02:22:37;96193.03;;;-4.28
40245;BMP280;25963;42.694;23.600;2024-01-10T02:25:05;96193.22;;;-4.18
40245;BMP280;25963;42.694;23.600;2024-01-10T02:27:30;96194.22;;;-4.22
40245;BMP280;25963;42.694;23.600;2024-01-10T02:29:56;96183.75;;;-4.26
40245;BMP280;25963;42.694;23.600;2024-01-10T02:32:23;96184.09;;;-4.27
40245;BMP280;25963;42.694;23.600;2024-01-10T02:34:48;96187.53;;;-4.23
40245;BMP280;25963;42.694;23.600;2024-01-10T02:37:14;96184.09;;;-4.27
40245;BMP280;25963;42.694;23.600;2024-01-10T02:39:39;96109.72;;;-4.82
40245;BMP280;25963;42.694;23.600;2024-01-10T02:42:05;96189.00;;;-4.22
40245;BMP280;25963;42.694;23.600;2024-01-10T02:44:30;96190.94;;;-4.19
40245;BMP280;25963;42.694;23.600;2024-01-10T02:46:56;96196.22;;;-4.16
40245;BMP280;25963;42.694;23.600;2024-01-10T02:49:21;96193.22;;;-4.18
40245;BMP280;25963;42.694;23.600;2024-01-10T02:51:47;96196.97;;;-4.15
40245;BMP280;25963;42.694;23.600;2024-01-10T02:54:12;96193.59;;;-4.16
40245;BMP280;25963;42.694;23.600;2024-01-10T02:56:37;96194.66;;;-4.20
40245;BMP280;25963;42.694;23.600;2024-01-10T02:59:03;96194.28;;;-4.19
40245;BMP280;25963;42.694;23.600;2024-01-10T03:01:28;96197.41;;;-4.13
40245;BMP280;25963;42.694;23.600;2024-01-10T03:03:53;96193.41;;;-4.07
40245;BMP280;25963;42.694;23.600;2024-01-10T03:06:19;96199.03;;;-4.05
40245;BMP280;25963;42.694;23.600;2024-01-10T03:08:44;96188.75;;;-4.17
40245;BMP280;25963;42.694;23.600;2024-01-10T03:11:10;96178.13;;;-4.28
40245;BMP280;25963;42.694;23.600;2024-01-10T03:13:35;96198.97;;;-4.28
40245;BMP280;25963;42.694;23.600;2024-01-10T03:16:00;96159.84;;;-4.51
40245;BMP280;25963;42.694;23.600;2024-01-10T03:18:26;96201.31;;;-4.23
40245;BMP280;25963;42.694;23.600;2024-01-10T03:20:51;96189.78;;;-4.22
40245;BMP280;25963;42.694;23.600;2024-01-10T03:23:17;96193.53;;;-4.19
40245;BMP280;25963;42.694;23.600;2024-01-10T03:25:42;96201.25;;;-4.26
40245;BMP280;25963;42.694;23.600;2024-01-10T03:28:08;96185.47;;;-4.33
40245;BMP280;25963;42.694;23.600;2024-01-10T03:30:33;96188.50;;;-4.31
40245;BMP280;25963;42.694;23.600;2024-01-10T03:32:59;96190.69;;;-4.33
40245;BMP280;25963;42.694;23.600;2024-01-10T03:35:24;96181.69;;;-4.36
40245;BMP280;25963;42.694;23.600;2024-01-10T03:37:50;96186.88;;;-4.36
40245;BMP280;25963;42.694;23.600;2024-01-10T03:40:15;96185.13;;;-4.32
40245;BMP280;25963;42.694;23.600;2024-01-10T03:42:41;96188.84;;;-4.33
40245;BMP280;25963;42.694;23.600;2024-01-10T03:45:06;96198.56;;;-4.30
40245;BMP280;25963;42.694;23.600;2024-01-10T03:47:32;96209.00;;;-4.30
40245;BMP280;25963;42.694;23.600;2024-01-10T03:49:57;96191.13;;;-4.31
40245;BMP280;25963;42.694;23.600;2024-01-10T03:52:23;96196.72;;;-4.29
40245;BMP280;25963;42.694;23.600;2024-01-10T03:54:48;96206.75;;;-4.31
40245;BMP280;25963;42.694;23.600;2024-01-10T03:57:14;96199.44;;;-4.41
40245;BMP280;25963;42.694;23.600;2024-01-10T03:59:39;96193.44;;;-4.45
40245;BMP280;25963;42.694;23.600;2024-01-10T04:02:05;96156.25;;;-4.81
40245;BMP280;25963;42.694;23.600;2024-01-10T04:04:30;96199.66;;;-4.50
40245;BMP280;25963;42.694;23.600;2024-01-10T04:06:56;96202.03;;;-4.61
40245;BMP280;25963;42.694;23.600;2024-01-10T04:09:21;96210.91;;;-4.65
40245;BMP280;25963;42.694;23.600;2024-01-10T04:11:46;96207.13;;;-4.68
40245;BMP280;25963;42.694;23.600;2024-01-10T04:14:12;96218.34;;;-4.64
40245;BMP280;25963;42.694;23.600;2024-01-10T04:16:37;96217.03;;;-4.73
40245;BMP280;25963;42.694;23.600;2024-01-10T04:19:03;96215.72;;;-4.83
40245;BMP280;25963;42.694;23.600;2024-01-10T04:21:28;96227.78;;;-4.75
40245;BMP280;25963;42.694;23.600;2024-01-10T04:23:54;96220.25;;;-4.80
40245;BMP280;25963;42.694;23.600;2024-01-10T04:26:19;96234.69;;;-4.82
40245;BMP280;25963;42.694;23.600;2024-01-10T04:28:45;96236.81;;;-4.88
40245;BMP280;25963;42.694;23.600;2024-01-10T04:31:10;96231.84;;;-4.93
40245;BMP280;25963;42.694;23.600;2024-01-10T04:33:36;96209.47;;;-5.13
40245;BMP280;25963;42.694;23.600;2024-01-10T04:36:01;96229.59;;;-4.94
40245;BMP280;25963;42.694;23.600;2024-01-10T04:38:27;96236.09;;;-5.04
40245;BMP280;25963;42.694;23.600;2024-01-10T04:40:52;96194.19;;;-5.30
40245;BMP280;25963;42.694;23.600;2024-01-10T04:43:18;96239.78;;;-5.05
40245;BMP280;25963;42.694;23.600;2024-01-10T04:45:44;96238.28;;;-5.06
40245;BMP280;25963;42.694;23.600;2024-01-10T04:48:09;96241.09;;;-5.11
40245;BMP280;25963;42.694;23.600;2024-01-10T04:50:35;96247.81;;;-5.10
40245;BMP280;25963;42.694;23.600;2024-01-10T04:53:00;96245.09;;;-5.17
40245;BMP280;25963;42.694;23.600;2024-01-10T04:55:26;96246.84;;;-5.21
40245;BMP280;25963;42.694;23.600;2024-01-10T04:57:52;96240.44;;;-5.24
40245;BMP280;25963;42.694;23.600;2024-01-10T05:00:18;96255.97;;;-5.27
40245;BMP280;25963;42.694;23.600;2024-01-10T05:02:44;96240.72;;;-5.44
40245;BMP280;25963;42.694;23.600;2024-01-10T05:05:09;96250.41;;;-5.41
40245;BMP280;25963;42.694;23.600;2024-01-10T05:07:35;96260.00;;;-5.45
40245;BMP280;25963;42.694;23.600;2024-01-10T05:10:00;96254.69;;;-5.49
40245;BMP280;25963;42.694;23.600;2024-01-10T05:12:25;96263.19;;;-5.52
40245;BMP280;25963;42.694;23.600;2024-01-10T05:14:51;96254.44;;;-5.60
40245;BMP280;25963;42.694;23.600;2024-01-10T05:17:17;96263.25;;;-5.64
40245;BMP280;25963;42.694;23.600;2024-01-10T05:19:43;96263.16;;;-5.68
40245;BMP280;25963;42.694;23.600;2024-01-10T05:22:08;96261.88;;;-5.74
40245;BMP280;25963;42.694;23.600;2024-01-10T05:24:34;96264.63;;;-5.82
40245;BMP280;25963;42.694;23.600;2024-01-10T05:27:00;96266.06;;;-5.85
40245;BMP280;25963;42.694;23.600;2024-01-10T05:29:26;96256.22;;;-5.91
40245;BMP280;25963;42.694;23.600;2024-01-10T05:31:52;96260.56;;;-5.95
40245;BMP280;25963;42.694;23.600;2024-01-10T05:34:17;96261.22;;;-5.98
40245;BMP280;25963;42.694;23.600;2024-01-10T05:36:43;96259.16;;;-6.05
40245;BMP280;25963;42.694;23.600;2024-01-10T05:39:08;96245.88;;;-6.16
40245;BMP280;25963;42.694;23.600;2024-01-10T05:41:34;96213.06;;;-6.36
40245;BMP280;25963;42.694;23.600;2024-01-10T05:43:59;96253.81;;;-6.12
40245;BMP280;25963;42.694;23.600;2024-01-10T05:46:25;96260.53;;;-6.23
40245;BMP280;25963;42.694;23.600;2024-01-10T05:48:53;96200.94;;;-6.72
40245;BMP280;25963;42.694;23.600;2024-01-10T05:51:18;96265.03;;;-6.36
40245;BMP280;25963;42.694;23.600;2024-01-10T05:53:44;96277.25;;;-6.48
40245;BMP280;25963;42.694;23.600;2024-01-10T05:56:09;96286.31;;;-6.55
40245;BMP280;25963;42.694;23.600;2024-01-10T05:58:35;96270.34;;;-6.57
40245;BMP280;25963;42.694;23.600;2024-01-10T06:01:01;96289.81;;;-6.50
40245;BMP280;25963;42.694;23.600;2024-01-10T06:03:26;96282.47;;;-6.61
40245;BMP280;25963;42.694;23.600;2024-01-10T06:05:51;96290.03;;;-6.56
40245;BMP280;25963;42.694;23.600;2024-01-10T06:08:17;96284.06;;;-6.56
40245;BMP280;25963;42.694;23.600;2024-01-10T06:10:42;96301.06;;;-6.59
40245;BMP280;25963;42.694;23.600;2024-01-10T06:13:08;96292.75;;;-6.64
40245;BMP280;25963;42.694;23.600;2024-01-10T06:15:33;96295.13;;;-6.59
40245;BMP280;25963;42.694;23.600;2024-01-10T06:17:59;96306.06;;;-6.53
40245;BMP280;25963;42.694;23.600;2024-01-10T06:20:24;96262.16;;;-6.83
40245;BMP280;25963;42.694;23.600;2024-01-10T06:22:49;96309.81;;;-6.51
40245;BMP280;25963;42.694;23.600;2024-01-10T06:25:15;96306.06;;;-6.53
40245;BMP280;25963;42.694;23.600;2024-01-10T06:27:41;96297.06;;;-6.44
40245;BMP280;25963;42.694;23.600;2024-01-10T06:30:07;96308.94;;;-6.43
40245;BMP280;25963;42.694;23.600;2024-01-10T06:32:33;96277.69;;;-6.59
40245;BMP280;25963;42.694;23.600;2024-01-10T06:34:58;96317.16;;;-6.29
40245;BMP280;25963;42.694;23.600;2024-01-10T06:37:27;96311.44;;;-6.22
40245;BMP280;25963;42.694;23.600;2024-01-10T06:39:52;96317.09;;;-6.05
40245;BMP280;25963;42.694;23.600;2024-01-10T06:42:18;96319.47;;;-5.99
40245;BMP280;25963;42.694;23.600;2024-01-10T06:44:43;96319.25;;;-5.94
40245;BMP280;25963;42.694;23.600;2024-01-10T06:47:09;96320.25;;;-5.99
40245;BMP280;25963;42.694;23.600;2024-01-10T06:49:35;96325.94;;;-5.93
40245;BMP280;25963;42.694;23.600;2024-01-10T06:52:00;96311.38;;;-5.98
40245;BMP280;25963;42.694;23.600;2024-01-10T06:54:26;96323.44;;;-5.90
40245;BMP280;25963;42.694;23.600;2024-01-10T06:56:51;96329.06;;;-5.88
40245;BMP280;25963;42.694;23.600;2024-01-10T06:59:17;96327.00;;;-5.82
40245;BMP280;25963;42.694;23.600;2024-01-10T07:01:42;96333.47;;;-5.76
40245;BMP280;25963;42.694;23.600;2024-01-10T07:04:07;96255.53;;;-6.16
40245;BMP280;25963;42.694;23.600;2024-01-10T07:06:33;96335.03;;;-5.60
40245;BMP280;25963;42.694;23.600;2024-01-10T07:08:58;96329.00;;;-5.64
40245;BMP280;25963;42.694;23.600;2024-01-10T07:11:24;96327.59;;;-5.61
40245;BMP280;25963;42.694;23.600;2024-01-10T07:13:49;96332.44;;;-5.60
40245;BMP280;25963;42.694;23.600;2024-01-10T07:16:15;96338.97;;;-5.66
40245;BMP280;25963;42.694;23.600;2024-01-10T07:18:41;96338.72;;;-5.61
40245;BMP280;25963;42.694;23.600;2024-01-10T07:21:06;96345.09;;;-5.58
40245;BMP280;25963;42.694;23.600;2024-01-10T07:23:31;96290.53;;;-5.86
40245;BMP280;25963;42.694;23.600;2024-01-10T07:25:57;96253.16;;;-6.09
40245;BMP280;25963;42.694;23.600;2024-01-10T07:28:23;96343.47;;;-5.50
40245;BMP280;25963;42.694;23.600;2024-01-10T07:30:49;96334.91;;;-5.51
40245;BMP280;25963;42.694;23.600;2024-01-10T07:33:14;96349.75;;;-5.52
40245;BMP280;25963;42.694;23.600;2024-01-10T07:35:40;96329.69;;;-5.67
40245;BMP280;25963;42.694;23.600;2024-01-10T07:38:06;96346.97;;;-5.59
40245;BMP280;25963;42.694;23.600;2024-01-10T07:40:34;96357.38;;;-5.59
40245;BMP280;25963;42.694;23.600;2024-01-10T07:43:00;96309.44;;;-5.85
40245;BMP280;25963;42.694;23.600;2024-01-10T07:45:26;96336.09;;;-5.76
40245;BMP280;25963;42.694;23.600;2024-01-10T07:47:51;96364.94;;;-5.54
40245;BMP280;25963;42.694;23.600;2024-01-10T07:50:17;96356.47;;;-5.50
40245;BMP280;25963;42.694;23.600;2024-01-10T07:52:45;96360.13;;;-5.39
40245;BMP280;25963;42.694;23.600;2024-01-10T07:55:11;96345.34;;;-5.35
40245;BMP280;25963;42.694;23.600;2024-01-10T07:57:37;96361.41;;;-5.18
40245;BMP280;25963;42.694;23.600;2024-01-10T08:00:06;96361.50;;;-5.14
40245;BMP280;25963;42.694;23.600;2024-01-10T08:02:35;96299.59;;;-5.52
40245;BMP280;25963;42.694;23.600;2024-01-10T08:05:02;96366.22;;;-4.88
40245;BMP280;25963;42.694;23.600;2024-01-10T08:07:36;96320.13;;;-5.04
40245;BMP280;25963;42.694;23.600;2024-01-10T08:10:09;96381.75;;;-4.61
40245;BMP280;25963;42.694;23.600;2024-01-10T08:12:38;96307.19;;;-5.00
40245;BMP280;25963;42.694;23.600;2024-01-10T08:15:04;96370.72;;;-4.38
40245;BMP280;25963;42.694;23.600;2024-01-10T08:17:31;96376.88;;;-4.31
40245;BMP280;25963;42.694;23.600;2024-01-10T08:19:58;96379.28;;;-4.22
40245;BMP280;25963;42.694;23.600;2024-01-10T08:22:23;96381.13;;;-4.07
40245;BMP280;25963;42.694;23.600;2024-01-10T08:24:49;96350.34;;;-4.17
40245;BMP280;25963;42.694;23.600;2024-01-10T08:27:14;96394.19;;;-3.88
40245;BMP280;25963;42.694;23.600;2024-01-10T08:29:42;96375.34;;;-3.78
40245;BMP280;25963;42.694;23.600;2024-01-10T08:32:07;96389.81;;;-3.65
40245;BMP280;25963;42.694;23.600;2024-01-10T08:34:33;96346.38;;;-3.73
40245;BMP280;25963;42.694;23.600;2024-01-10T08:36:58;96388.53;;;-3.32
40245;BMP280;25963;42.694;23.600;2024-01-10T08:39:24;96345.69;;;-3.51
40245;BMP280;25963;42.694;23.600;2024-01-10T08:41:51;96397.91;;;-3.09
40245;BMP280;25963;42.694;23.600;2024-01-10T08:44:18;96380.50;;;-3.01
40245;BMP280;25963;42.694;23.600;2024-01-10T08:46:43;96395.53;;;-2.95
40245;BMP280;25963;42.694;23.600;2024-01-10T08:49:09;96395.53;;;-2.95
40245;BMP280;25963;42.694;23.600;2024-01-10T08:51:35;96387.25;;;-2.77
40245;BMP280;25963;42.694;23.600;2024-01-10T08:54:00;96385.38;;;-2.77
40245;BMP280;25963;42.694;23.600;2024-01-10T08:56:26;96388.22;;;-2.63
40245;BMP280;25963;42.694;23.600;2024-01-10T08:58:52;96386.22;;;-2.47
40245;BMP280;25963;42.694;23.600;2024-01-10T09:01:18;96373.69;;;-2.34
40245;BMP280;25963;42.694;23.600;2024-01-10T09:03:44;96379.84;;;-2.23
40245;BMP280;25963;42.694;23.600;2024-01-10T09:06:09;96370.31;;;-2.08
40245;BMP280;25963;42.694;23.600;2024-01-10T09:08:35;96382.03;;;-1.95
40245;BMP280;25963;42.694;23.600;2024-01-10T09:11:00;96378.00;;;-1.89
40245;BMP280;25963;42.694;23.600;2024-01-10T09:13:26;96379.22;;;-1.83
40245;BMP280;25963;42.694;23.600;2024-01-10T09:15:51;96382.00;;;-1.69
40245;BMP280;25963;42.694;23.600;2024-01-10T09:18:16;96389.09;;;-1.69
40245;BMP280;25963;42.694;23.600;2024-01-10T09:20:42;96383.97;;;-1.59
40245;BMP280;25963;42.694;23.600;2024-01-10T09:23:08;96357.09;;;-1.56
40245;BMP280;25963;42.694;23.600;2024-01-10T09:25:33;96363.03;;;-1.59
40245;BMP280;25963;42.694;23.600;2024-01-10T09:27:59;96368.75;;;-1.50
40245;BMP280;25963;42.694;23.600;2024-01-10T09:30:24;96377.41;;;-1.42
40245;BMP280;25963;42.694;23.600;2024-01-10T09:32:50;96379.88;;;-1.23
40245;BMP280;25963;42.694;23.600;2024-01-10T09:35:15;96382.56;;;-1.12
40245;BMP280;25963;42.694;23.600;2024-01-10T09:37:41;96378.47;;;-1.13
40245;BMP280;25963;42.694;23.600;2024-01-10T09:40:07;96375.06;;;-1.18
40245;BMP280;25963;42.694;23.600;2024-01-10T09:42:35;96360.78;;;-1.24
40245;BMP280;25963;42.694;23.600;2024-01-10T09:45:03;96367.19;;;-1.18
40245;BMP280;25963;42.694;23.600;2024-01-10T09:47:31;96376.56;;;-1.13
40245;BMP280;25963;42.694;23.600;2024-01-10T09:49:58;96369.09;;;-1.14
40245;BMP280;25963;42.694;23.600;2024-01-10T09:52:25;96337.09;;;-1.34
40245;BMP280;25963;42.694;23.600;2024-01-10T09:54:55;96372.91;;;-1.05
40245;BMP280;25963;42.694;23.600;2024-01-10T09:57:24;96373.69;;;-1.01
40245;BMP280;25963;42.694;23.600;2024-01-10T09:59:51;96327.84;;;-1.25
40245;BMP280;25963;42.694;23.600;2024-01-10T10:02:18;96362.53;;;-0.91
40245;BMP280;25963;42.694;23.600;2024-01-10T10:04:56;96358.69;;;-1.04
40245;BMP280;25963;42.694;23.600;2024-01-10T10:07:25;96331.22;;;-1.24
40245;BMP280;25963;42.694;23.600;2024-01-10T10:09:51;96352.81;;;-0.90
40245;BMP280;25963;42.694;23.600;2024-01-10T10:12:18;96283.75;;;-1.16
40245;BMP280;25963;42.694;23.600;2024-01-10T10:14:44;96272.53;;;-1.16
40245;BMP280;25963;42.694;23.600;2024-01-10T10:17:17;96344.81;;;-0.53
40245;BMP280;25963;42.694;23.600;2024-01-10T10:19:43;96350.88;;;-0.42
40245;BMP280;25963;42.694;23.600;2024-01-10T10:22:10;96300.19;;;-0.64
40245;BMP280;25963;42.694;23.600;2024-01-10T10:24:35;96277.69;;;-0.72
40245;BMP280;25963;42.694;23.600;2024-01-10T10:27:01;96278.13;;;-0.56
40245;BMP280;25963;42.694;23.600;2024-01-10T10:29:26;96256.38;;;-0.64
40245;BMP280;25963;42.694;23.600;2024-01-10T10:31:52;96317.28;;;-0.19
40245;BMP280;25963;42.694;23.600;2024-01-10T10:34:21;96310.97;;;-0.11
40245;BMP280;25963;42.694;23.600;2024-01-10T10:36:48;96246.31;;;-0.51
40245;BMP280;25963;42.694;23.600;2024-01-10T10:39:16;96306.84;;;-0.05
40245;BMP280;25963;42.694;23.600;2024-01-10T10:41:42;96317.28;;;-0.16
40245;BMP280;25963;42.694;23.600;2024-01-10T10:44:09;96230.53;;;-0.62
40245;BMP280;25963;42.694;23.600;2024-01-10T10:46:35;96308.66;;;-0.16
40245;BMP280;25963;42.694;23.600;2024-01-10T10:49:06;96304.19;;;-0.16
40245;BMP280;25963;42.694;23.600;2024-01-10T10:51:36;96307.19;;;-0.10
40245;BMP280;25963;42.694;23.600;2024-01-10T10:54:03;96256.91;;;-0.30
40245;BMP280;25963;42.694;23.600;2024-01-10T10:56:30;96305.00;;;0.10
40245;BMP280;25963;42.694;23.600;2024-01-10T10:58:56;96295.28;;;0.14
40245;BMP280;25963;42.694;23.600;2024-01-10T11:01:23;96291.91;;;0.24
40245;BMP280;25963;42.694;23.600;2024-01-10T11:03:49;96280.69;;;0.27
40245;BMP280;25963;42.694;23.600;2024-01-10T11:06:15;96281.78;;;0.40
40245;BMP280;25963;42.694;23.600;2024-01-10T11:11:50;96272.81;;;0.66
40245;BMP280;25963;42.694;23.600;2024-01-10T11:14:43;96269.06;;;0.77
40245;BMP280;25963;42.694;23.600;2024-01-10T11:17:35;96266.44;;;0.74
40245;BMP280;25963;42.694;23.600;2024-01-10T11:25:51;96249.53;;;0.78
40245;BMP280;25963;42.694;23.600;2024-01-10T11:28:16;96241.25;;;0.83
40245;BMP280;25963;42.694;23.600;2024-01-10T11:30:53;96246.16;;;0.88
40245;BMP280;25963;42.694;23.600;2024-01-10T11:33:30;96237.13;;;0.93
40245;BMP280;25963;42.694;23.600;2024-01-10T11:36:25;96222.09;;;0.86
40245;BMP280;25963;42.694;23.600;2024-01-10T11:46:56;96189.50;;;0.66
40245;BMP280;25963;42.694;23.600;2024-01-10T11:49:22;96226.59;;;1.00
40245;BMP280;25963;42.694;23.600;2024-01-10T11:51:49;96198.47;;;0.76
40245;BMP280;25963;42.694;23.600;2024-01-10T11:57:11;96216.44;;;1.05
40245;BMP280;25963;42.694;23.600;2024-01-10T11:59:38;96214.56;;;1.06
40245;BMP280;25963;42.694;23.600;2024-01-10T12:02:04;96169.53;;;0.86
40245;BMP280;25963;42.694;23.600;2024-01-10T12:04:31;96187.16;;;1.03
40245;BMP280;25963;42.694;23.600;2024-01-10T12:06:57;96138.06;;;0.69
40245;BMP280;25963;42.694;23.600;2024-01-10T12:09:23;96133.97;;;0.60
40245;BMP280;25963;42.694;23.600;2024-01-10T12:11:50;96157.50;;;0.92
40245;BMP280;25963;42.694;23.600;2024-01-10T12:14:16;96144.03;;;0.83
40245;BMP280;25963;42.694;23.600;2024-01-10T12:16:42;96189.38;;;1.12
40245;BMP280;25963;42.694;23.600;2024-01-10T12:19:08;96191.22;;;1.22
40245;BMP280;25963;42.694;23.600;2024-01-10T12:21:34;96190.44;;;1.29
40245;BMP280;25963;42.694;23.600;2024-01-10T12:23:59;96187.81;;;1.29
40245;BMP280;25963;42.694;23.600;2024-01-10T12:26:25;96182.13;;;1.34
40245;BMP280;25963;42.694;23.600;2024-01-10T12:28:54;96186.28;;;1.35
40245;BMP280;25963;42.694;23.600;2024-01-10T12:31:20;96175.44;;;1.26
40245;BMP280;25963;42.694;23.600;2024-01-10T12:33:48;96149.94;;;1.12
40245;BMP280;25963;42.694;23.600;2024-01-10T12:36:14;96115.41;;;1.10
40245;BMP280;25963;42.694;23.600;2024-01-10T12:38:39;96164.44;;;1.45
40245;BMP280;25963;42.694;23.600;2024-01-10T12:41:05;96163.63;;;1.55
40245;BMP280;25963;42.694;23.600;2024-01-10T12:43:31;96176.75;;;1.65
40245;BMP280;25963;42.694;23.600;2024-01-10T12:46:10;96165.47;;;1.58
40245;BMP280;25963;42.694;23.600;2024-01-10T12:48:40;96169.97;;;1.61
40245;BMP280;25963;42.694;23.600;2024-01-10T12:51:22;96169.91;;;1.71
40245;BMP280;25963;42.694;23.600;2024-01-10T12:53:56;96146.00;;;1.52
40245;BMP280;25963;42.694;23.600;2024-01-10T12:56:26;96171.44;;;1.72
40245;BMP280;25963;42.694;23.600;2024-01-10T12:58:53;96173.66;;;1.74
40245;BMP280;25963;42.694;23.600;2024-01-10T13:01:20;96165.47;;;1.58
40245;BMP280;25963;42.694;23.600;2024-01-10T13:04:22;96176.78;;;1.55
40245;BMP280;25963;42.694;23.600;2024-01-10T13:06:52;96171.94;;;1.46
40245;BMP280;25963;42.694;23.600;2024-01-10T13:09:18;96094.09;;;0.87
40245;BMP280;25963;42.694;23.600;2024-01-10T13:11:44;96125.97;;;0.99
40245;BMP280;25963;42.694;23.600;2024-01-10T13:14:11;96163.75;;;1.30
40245;BMP280;25963;42.694;23.600;2024-01-10T13:16:37;96154.06;;;1.16
40245;BMP280;25963;42.694;23.600;2024-01-10T13:19:02;96154.81;;;1.13
40245;BMP280;25963;42.694;23.600;2024-01-10T13:21:28;96169.47;;;1.14
40245;BMP280;25963;42.694;23.600;2024-01-10T13:23:53;96144.75;;;0.94
40245;BMP280;25963;42.694;23.600;2024-01-10T13:26:19;96174.00;;;1.10
40245;BMP280;25963;42.694;23.600;2024-01-10T13:28:44;96168.38;;;1.01
40245;BMP280;25963;42.694;23.600;2024-01-10T13:31:10;96179.63;;;1.09
40245;BMP280;25963;42.694;23.600;2024-01-10T13:33:36;96179.63;;;1.05
40245;BMP280;25963;42.694;23.600;2024-01-10T13:36:03;96181.91;;;1.00
40245;BMP280;25963;42.694;23.600;2024-01-10T13:38:29;96133.56;;;0.66
40245;BMP280;25963;42.694;23.600;2024-01-10T13:40:55;96185.28;;;1.00
40245;BMP280;25963;42.694;23.600;2024-01-10T13:43:20;96170.28;;;0.90
40245;BMP280;25963;42.694;23.600;2024-01-10T13:45:46;96187.91;;;1.00
40245;BMP280;25963;42.694;23.600;2024-01-10T13:48:11;96186.78;;;0.98
40245;BMP280;25963;42.694;23.600;2024-01-10T13:50:36;96168.78;;;0.86
40245;BMP280;25963;42.694;23.600;2024-01-10T13:53:02;96173.31;;;0.78
40245;BMP280;25963;42.694;23.600;2024-01-10T13:55:29;96183.81;;;0.82
40245;BMP280;25963;42.694;23.600;2024-01-10T13:57:55;96150.06;;;0.55
40245;BMP280;25963;42.694;23.600;2024-01-10T14:00:21;96170.72;;;0.71
40245;BMP280;25963;42.694;23.600;2024-01-10T14:02:47;96175.59;;;0.62
40245;BMP280;25963;42.694;23.600;2024-01-10T14:05:12;96173.00;;;0.51
40245;BMP280;25963;42.694;23.600;2024-01-10T14:07:38;96170.38;;;0.55
40245;BMP280;25963;42.694;23.600;2024-01-10T14:10:04;96174.13;;;0.47
40245;BMP280;25963;42.694;23.600;2024-01-10T14:12:30;96168.88;;;0.40
40245;BMP280;25963;42.694;23.600;2024-01-10T14:14:55;96176.00;;;0.36